Time;durP1;ratioP1;P1;durP2;ratioP2;P2;SDS_P1;SDS_P2;PMS_P1;PMS_P2;Temp;Humidity;BMP_temperature;BMP_pressure;BME280_temperature;BME280_humidity;BME280_pressure;Samples;Min_cycle;Max_cycle;Signal;HPM_P1;HPM_P2
2022/05/17 00:01:16;;;;;;;11.48;5.25;;;;;;;12.02;80.53;94432.63;4913192;29;20051;-46
2022/05/17 00:03:44;;;;;;;11.73;5.10;;;;;;;11.99;80.82;94425.97;4912630;29;20058;-48
2022/05/17 00:06:11;;;;;;;8.27;4.65;;;;;;;11.98;80.50;94430.69;4912594;29;20434;-49
2022/05/17 00:08:39;;;;;;;7.70;4.03;;;;;;;11.95;80.53;94423.28;4912376;29;20931;-52
2022/05/17 00:11:06;;;;;;;6.93;4.10;;;;;;;11.94;80.69;94431.94;4913702;29;20074;-51
2022/05/17 00:13:33;;;;;;;7.82;4.50;;;;;;;11.95;81.01;94428.78;4913027;29;20051;-53
2022/05/17 00:16:01;;;;;;;7.72;4.50;;;;;;;11.85;80.82;94426.13;4913207;29;20425;-49
2022/05/17 00:18:28;;;;;;;8.38;4.60;;;;;;;11.74;81.46;94426.25;4912674;29;20052;-54
2022/05/17 00:20:56;;;;;;;7.88;4.60;;;;;;;11.68;81.53;94420.41;4913754;29;20048;-47
2022/05/17 00:23:23;;;;;;;8.27;4.77;;;;;;;11.69;81.76;94423.94;4910816;29;20051;-46
2022/05/17 00:25:50;;;;;;;8.15;4.45;;;;;;;11.68;81.46;94431.41;4913466;29;20165;-51
2022/05/17 00:28:19;;;;;;;11.35;4.70;;;;;;;11.66;81.72;94424.78;4912952;29;20145;-51
2022/05/17 00:30:47;;;;;;;8.15;4.25;;;;;;;11.63;80.96;94422.84;4913190;29;20051;-48
2022/05/17 00:33:14;;;;;;;9.20;4.35;;;;;;;11.64;81.04;94424.41;4912772;29;20441;-49
2022/05/17 00:35:43;;;;;;;8.33;4.37;;;;;;;11.68;80.49;94430.66;4913121;29;20044;-49
2022/05/17 00:38:12;;;;;;;8.38;4.35;;;;;;;11.63;80.53;94422.84;4913428;29;20071;-53
2022/05/17 00:40:40;;;;;;;10.52;5.13;;;;;;;11.60;80.46;94422.47;4912359;29;20921;-49
2022/05/17 00:43:08;;;;;;;16.25;9.20;;;;;;;11.58;80.43;94421.31;4912170;29;20067;-51
2022/05/17 00:45:39;;;;;;;14.18;8.45;;;;;;;11.53;80.61;94416.25;4912501;29;20058;-49
2022/05/17 00:48:08;;;;;;;8.77;4.67;;;;;;;11.35;81.02;94413.72;4913396;29;20050;-47
2022/05/17 00:50:39;;;;;;;10.57;5.10;;;;;;;11.29;81.54;94409.84;4912838;29;20413;-48
2022/05/17 00:53:17;;;;;;;10.27;4.60;;;;;;;11.31;81.34;94411.00;4913356;29;20052;-50
2022/05/17 00:55:59;;;;;;;7.07;4.20;;;;;;;11.32;81.44;94409.81;4912057;29;20958;-47
2022/05/17 00:58:33;;;;;;;9.68;4.90;;;;;;;11.33;80.96;94405.13;4911127;29;20163;-54
2022/05/17 01:01:05;;;;;;;9.03;5.07;;;;;;;11.32;81.04;94411.78;4913389;29;20044;-53
2022/05/17 01:03:57;;;;;;;7.95;4.32;;;;;;;11.29;80.73;94407.09;4912445;29;20056;-48
2022/05/17 01:06:32;;;;;;;9.15;4.82;;;;;;;11.27;80.65;94402.03;4912577;29;20040;-48
2022/05/17 01:08:59;;;;;;;10.68;4.80;;;;;;;11.25;80.38;94400.84;4913349;29;20041;-46
2022/05/17 01:11:26;;;;;;;9.35;5.13;;;;;;;11.23;80.36;94403.22;4912479;29;20155;-49
2022/05/17 01:16:38;;;;;;;8.40;4.90;;;;;;;11.15;81.62;94408.81;4915115;29;20048;-49
2022/05/17 01:19:08;;;;;;;8.45;4.82;;;;;;;11.16;81.66;94395.84;4916677;29;20044;-46
2022/05/17 01:21:36;;;;;;;8.05;5.07;;;;;;;11.18;82.32;94398.97;4915618;29;20048;-51
2022/05/17 01:24:03;;;;;;;10.95;4.90;;;;;;;11.14;82.50;94399.00;4916180;29;20044;-48
2022/05/17 01:26:32;;;;;;;11.13;4.90;;;;;;;11.16;82.54;94396.63;4915705;29;20049;-46
2022/05/17 01:28:59;;;;;;;9.45;5.03;;;;;;;11.16;82.34;94395.84;4915106;29;20052;-52
2022/05/17 01:31:27;;;;;;;9.80;5.18;;;;;;;11.13;82.52;94402.94;4915516;29;20044;-47
2022/05/17 01:33:54;;;;;;;9.45;5.05;;;;;;;11.07;82.37;94396.34;4909513;29;20049;-46
2022/05/17 01:36:22;;;;;;;10.60;5.38;;;;;;;11.03;82.73;94406.56;4907657;29;20078;-48
2022/05/17 01:38:51;;;;;;;8.77;5.40;;;;;;;11.02;82.35;94396.75;4916790;29;20051;-50
2022/05/17 01:41:19;;;;;;;8.32;4.88;;;;;;;11.06;82.39;94397.50;4915936;29;20040;-50
2022/05/17 01:43:46;;;;;;;10.27;4.88;;;;;;;11.10;82.37;94406.50;4916600;29;20040;-51
2022/05/17 01:46:13;;;;;;;9.85;4.90;;;;;;;11.06;82.49;94400.25;4915951;29;20058;-48
2022/05/17 01:48:40;;;;;;;8.70;5.20;;;;;;;11.13;81.84;94394.69;4916103;29;20051;-47
2022/05/17 01:51:09;;;;;;;9.67;5.87;;;;;;;11.19;81.40;94395.81;4916253;29;20079;-46
2022/05/17 01:53:37;;;;;;;101.32;53.15;;;;;;;11.22;81.37;94385.97;4916056;29;20050;-49
2022/05/17 01:56:05;;;;;;;16.63;8.63;;;;;;;11.21;80.97;94392.66;4916279;29;20067;-48
2022/05/17 01:58:33;;;;;;;10.00;5.35;;;;;;;11.28;80.71;94386.31;4915866;29;20064;-49
2022/05/17 02:01:00;;;;;;;11.73;5.30;;;;;;;11.34;80.41;94392.91;4916306;29;20040;-46
2022/05/17 02:03:27;;;;;;;10.20;5.57;;;;;;;11.36;80.24;94391.31;4915746;29;20060;-47
2022/05/17 02:05:53;;;;;;;11.10;4.88;;;;;;;11.43;80.10;94398.72;4916098;29;20052;-49
2022/05/17 02:08:20;;;;;;;11.00;4.95;;;;;;;11.47;80.01;94399.47;4915737;29;20051;-50
2022/05/17 02:10:47;;;;;;;9.40;4.93;;;;;;;11.54;80.03;94393.88;4916071;29;20044;-50
2022/05/17 02:13:16;;;;;;;7.05;4.55;;;;;;;11.52;79.65;94385.25;4915372;29;20055;-48
2022/05/17 02:15:42;;;;;;;9.87;4.63;;;;;;;11.43;80.03;94393.22;4915414;29;20071;-47
2022/05/17 02:18:09;;;;;;;7.75;4.85;;;;;;;11.49;80.18;94394.34;4915884;29;20047;-47
2022/05/17 02:20:36;;;;;;;49.83;28.33;;;;;;;11.49;80.17;94390.78;4915356;29;20040;-46
2022/05/17 02:23:03;;;;;;;15.98;8.55;;;;;;;11.53;79.90;94386.03;4915678;29;20056;-48
2022/05/17 02:25:29;;;;;;;10.15;5.40;;;;;;;11.16;82.06;94382.88;4915113;29;20513;-54
2022/05/17 02:27:56;;;;;;;8.10;5.07;;;;;;;11.11;82.64;94386.09;4915341;29;20056;-53
2022/05/17 02:30:24;;;;;;;10.07;5.40;;;;;;;11.20;82.60;94391.88;4915332;29;20490;-46
2022/05/17 02:32:50;;;;;;;10.63;5.50;;;;;;;11.07;83.80;94390.84;4915787;29;20047;-48
2022/05/17 02:35:17;;;;;;;10.98;5.13;;;;;;;11.10;83.53;94389.22;4915035;29;20050;-47
2022/05/17 02:37:44;;;;;;;9.68;5.38;;;;;;;11.19;83.17;94395.81;4915612;29;20070;-50
2022/05/17 02:40:12;;;;;;;9.23;5.50;;;;;;;11.19;83.26;94400.53;4915785;29;20057;-51
2022/05/17 02:42:38;;;;;;;9.18;5.25;;;;;;;11.23;83.05;94390.28;4914419;29;20343;-50
2022/05/17 02:45:06;;;;;;;11.05;5.70;;;;;;;11.26;82.88;94394.19;4915232;29;20412;-51
2022/05/17 02:47:34;;;;;;;9.85;5.43;;;;;;;11.20;83.34;94391.09;4914822;29;20056;-46
2022/05/17 02:50:01;;;;;;;8.98;5.57;;;;;;;11.02;84.39;94407.75;4915145;29;20107;-48
2022/05/17 02:52:27;;;;;;;9.63;5.60;;;;;;;11.05;84.46;94406.16;4915021;29;20515;-51
2022/05/17 02:54:54;;;;;;;9.80;5.35;;;;;;;11.07;84.21;94398.31;4915228;29;20111;-51
2022/05/17 02:57:21;;;;;;;10.82;5.63;;;;;;;11.15;84.23;94406.06;4914383;29;20051;-49
2022/05/17 02:59:47;;;;;;;10.73;5.90;;;;;;;11.15;83.98;94403.31;4915314;29;20514;-52
2022/05/17 03:02:14;;;;;;;9.48;5.40;;;;;;;11.27;83.64;94402.03;4914774;29;20051;-46
2022/05/17 03:04:41;;;;;;;10.63;5.87;;;;;;;11.36;83.46;94404.28;4906807;29;20040;-48
2022/05/17 03:07:08;;;;;;;10.48;5.90;;;;;;;11.37;83.21;94409.38;4896182;29;20048;-53
2022/05/17 03:09:35;;;;;;;9.73;5.68;;;;;;;11.34;83.23;94395.66;4895572;29;20442;-50
2022/05/17 03:12:02;;;;;;;11.20;6.18;;;;;;;11.17;83.46;94405.66;4910126;29;20052;-49
2022/05/17 03:14:29;;;;;;;10.95;6.18;;;;;;;10.93;84.50;94401.97;4895441;29;20044;-47
2022/05/17 03:16:56;;;;;;;9.37;5.60;;;;;;;10.79;84.79;94405.59;4895743;29;20044;-48
2022/05/17 03:19:23;;;;;;;10.38;5.80;;;;;;;10.76;85.09;94403.66;4895389;29;20099;-48
2022/05/17 03:21:50;;;;;;;9.88;5.95;;;;;;;10.83;84.67;94408.31;4895742;29;20041;-49
2022/05/17 03:24:17;;;;;;;10.10;5.80;;;;;;;10.87;84.56;94404.34;4905330;29;20106;-47
2022/05/17 03:27:04;;;;;;;10.27;6.22;;;;;;;10.74;84.82;94406.03;4914630;29;20054;-51
2022/05/17 03:29:31;;;;;;;9.60;5.90;;;;;;;10.47;86.44;94405.84;4914093;29;20052;-49
2022/05/17 03:31:59;;;;;;;10.55;6.00;;;;;;;10.45;86.89;94402.72;4914823;29;20062;-50
2022/05/17 03:34:26;;;;;;;10.07;6.22;;;;;;;10.44;86.67;94410.16;4914055;29;20048;-48
2022/05/17 03:36:53;;;;;;;10.15;6.03;;;;;;;10.44;86.56;94410.16;4914519;29;20040;-47
2022/05/17 03:39:19;;;;;;;10.98;6.85;;;;;;;10.34;86.91;94409.06;4912600;29;20070;-50
2022/05/17 03:41:46;;;;;;;12.87;7.30;;;;;;;10.41;87.12;94412.94;4914200;29;20048;-46
2022/05/17 03:44:13;;;;;;;12.02;6.40;;;;;;;10.46;86.78;94412.50;4913965;29;20043;-49
2022/05/17 03:46:39;;;;;;;9.57;5.95;;;;;;;10.50;86.18;94407.78;4914360;29;20046;-53
2022/05/17 03:49:09;;;;;;;8.25;5.70;;;;;;;10.52;85.96;94405.41;4914268;29;20059;-48
2022/05/17 03:51:36;;;;;;;9.88;5.65;;;;;;;10.51;85.71;94404.63;4914018;29;20548;-46
2022/05/17 03:54:03;;;;;;;9.53;6.00;;;;;;;10.58;85.77;94404.59;4914415;29;20040;-47
2022/05/17 03:56:30;;;;;;;12.00;6.72;;;;;;;10.62;86.17;94407.28;4913447;29;20044;-50
2022/05/17 03:58:56;;;;;;;8.75;5.90;;;;;;;10.70;85.48;94408.00;4914148;29;20070;-47
2022/05/17 04:01:23;;;;;;;10.35;6.13;;;;;;;10.72;85.28;94413.88;4913829;29;20050;-53
2022/05/17 04:03:50;;;;;;;10.10;5.70;;;;;;;10.75;84.97;94413.84;4907857;29;20095;-52
2022/05/17 04:06:22;;;;;;;16.63;8.33;;;;;;;10.68;85.51;94413.91;4897558;29;20052;-47
2022/05/17 04:08:50;;;;;;;11.38;7.43;;;;;;;10.62;85.68;94414.75;4895153;29;20057;-52
2022/05/17 04:11:17;;;;;;;13.80;7.03;;;;;;;10.51;85.88;94425.81;4894840;29;20044;-52
2022/05/17 04:13:44;;;;;;;11.63;6.45;;;;;;;10.66;86.04;94421.00;4909725;29;20037;-53
2022/05/17 04:16:11;;;;;;;11.35;6.32;;;;;;;10.89;85.33;94429.44;4894866;29;20052;-54
2022/05/17 04:18:38;;;;;;;11.30;5.97;;;;;;;11.03;84.14;94423.06;4893907;29;21694;-49
2022/05/17 04:21:06;;;;;;;12.93;6.15;;;;;;;11.20;83.62;94429.56;4895314;29;20036;-51
2022/05/17 04:23:33;;;;;;;10.68;6.50;;;;;;;11.26;82.94;94421.66;4899242;29;20044;-50
2022/05/17 04:26:00;;;;;;;13.50;6.57;;;;;;;11.40;82.94;94422.28;4913786;29;20123;-53
2022/05/17 04:28:27;;;;;;;11.82;6.63;;;;;;;11.30;82.95;94422.41;4913482;29;20056;-48
2022/05/17 04:30:54;;;;;;;11.90;6.23;;;;;;;11.42;82.35;94423.84;4913874;29;20044;-52
2022/05/17 04:33:21;;;;;;;11.25;6.80;;;;;;;11.42;82.53;94419.13;4913163;29;20048;-52
2022/05/17 04:35:48;;;;;;;12.45;6.70;;;;;;;11.31;82.82;94423.97;4914062;29;20499;-48
2022/05/17 04:38:15;;;;;;;14.13;6.60;;;;;;;11.41;82.33;94423.09;4913383;29;20515;-46
2022/05/17 04:40:42;;;;;;;13.25;6.68;;;;;;;11.24;82.60;94429.53;4913641;29;20056;-48
2022/05/17 04:43:10;;;;;;;12.33;7.30;;;;;;;11.18;82.65;94418.19;4913857;29;20041;-52
2022/05/17 04:45:37;;;;;;;11.18;6.32;;;;;;;10.93;83.41;94426.66;4912630;29;20916;-49
2022/05/17 04:48:04;;;;;;;13.07;6.88;;;;;;;10.99;83.79;94425.06;4913568;29;20044;-51
2022/05/17 04:50:31;;;;;;;12.00;6.72;;;;;;;11.17;83.17;94431.16;4915187;29;20052;-52
2022/05/17 04:52:59;;;;;;;13.75;6.78;;;;;;;11.30;82.55;94436.91;4915906;29;20070;-47
2022/05/17 04:55:26;;;;;;;12.23;6.73;;;;;;;11.30;82.70;94427.91;4916885;29;20448;-49
2022/05/17 04:57:52;;;;;;;12.18;6.97;;;;;;;11.26;83.03;94433.41;4916916;29;20056;-53
2022/05/17 05:00:22;;;;;;;13.68;7.72;;;;;;;11.23;83.30;94427.94;4916543;29;20040;-51
2022/05/17 05:02:50;;;;;;;14.05;7.25;;;;;;;11.36;82.87;94427.03;4917266;29;20056;-49
2022/05/17 05:05:18;;;;;;;14.13;6.93;;;;;;;11.60;81.71;94433.47;4916393;29;20040;-53
2022/05/17 05:07:45;;;;;;;14.27;6.77;;;;;;;11.72;81.50;94436.88;4917163;29;20048;-54
2022/05/17 05:10:13;;;;;;;11.85;6.47;;;;;;;11.85;81.33;94431.63;4916350;29;20043;-47
2022/05/17 05:12:40;;;;;;;11.60;6.50;;;;;;;11.53;82.37;94438.25;4916605;29;20048;-48
2022/05/17 05:15:08;;;;;;;14.70;7.38;;;;;;;11.24;83.79;94446.00;4916722;29;20044;-51
2022/05/17 05:17:36;;;;;;;11.18;6.88;;;;;;;10.99;84.42;94441.53;4915966;29;20048;-46
2022/05/17 05:20:05;;;;;;;12.83;7.33;;;;;;;11.27;83.46;94447.94;4916543;29;20153;-48
2022/05/17 05:22:33;;;;;;;12.52;7.18;;;;;;;11.54;82.77;94442.56;4916540;29;20056;-46
2022/05/17 05:25:01;;;;;;;12.90;7.22;;;;;;;11.80;82.21;94454.84;4900557;29;20051;-46
2022/05/17 05:27:35;;;;;;;13.23;7.30;;;;;;;12.05;81.22;94449.06;4896942;29;20549;-46
2022/05/17 05:30:04;;;;;;;12.32;6.90;;;;;;;12.19;80.57;94439.88;4897702;29;20414;-46
2022/05/17 05:32:31;;;;;;;14.60;7.67;;;;;;;12.18;80.74;94444.59;4897038;29;20045;-46
2022/05/17 05:34:58;;;;;;;12.27;7.13;;;;;;;12.86;79.16;94448.38;4880499;29;20044;-50
2022/05/17 05:37:24;;;;;;;12.98;7.20;;;;;;;14.18;75.03;94442.50;4896964;29;20061;-49
2022/05/17 05:39:51;;;;;;;11.25;7.20;;;;;;;15.60;68.68;94440.81;4897294;29;20048;-48
2022/05/17 05:42:18;;;;;;;9.85;6.63;;;;;;;15.20;69.92;94439.03;4896830;29;20047;-45
2022/05/17 05:44:45;;;;;;;12.10;6.10;;;;;;;14.87;70.64;94439.03;4894182;29;20045;-49
2022/05/17 05:47:11;;;;;;;10.50;6.47;;;;;;;14.52;72.05;94437.81;4877724;29;20123;-46
2022/05/17 05:49:38;;;;;;;10.75;6.47;;;;;;;14.63;72.34;94438.41;4875493;29;20447;-52
2022/05/17 05:52:05;;;;;;;11.40;7.05;;;;;;;14.80;72.27;94446.72;4877862;29;20064;-50
2022/05/17 05:54:32;;;;;;;10.90;6.20;;;;;;;15.58;70.51;94438.47;4877493;29;20860;-49
2022/05/17 05:57:02;;;;;;;10.67;6.00;;;;;;;16.06;68.49;94438.81;4877765;29;20053;-46
2022/05/17 05:59:30;;;;;;;10.68;6.38;;;;;;;16.48;66.94;94453.41;4877912;29;20055;-46
2022/05/17 06:01:57;;;;;;;9.40;5.90;;;;;;;17.44;64.33;94448.84;4877389;29;20045;-47
2022/05/17 06:04:27;;;;;;;10.20;5.65;;;;;;;19.93;56.69;94446.69;4879491;29;20048;-51
2022/05/17 06:06:56;;;;;;;10.00;5.32;;;;;;;20.62;54.23;94448.03;4886082;29;20354;-50
2022/05/17 06:09:24;;;;;;;11.90;5.50;;;;;;;18.44;59.68;94455.72;4878450;29;20100;-50
2022/05/17 06:11:51;;;;;;;9.65;5.97;;;;;;;17.56;62.81;94455.59;4877380;29;20055;-51
2022/05/17 06:14:20;;;;;;;11.02;5.50;;;;;;;18.16;61.39;94458.31;4877108;29;20048;-54
2022/05/17 06:16:51;;;;;;;10.48;6.00;;;;;;;19.07;58.14;94452.97;4889078;29;20037;-48
2022/05/17 06:19:18;;;;;;;10.20;5.90;;;;;;;18.95;58.13;94457.41;4896231;29;20060;-52
2022/05/17 06:21:45;;;;;;;10.37;5.90;;;;;;;20.61;53.83;94452.06;4897163;29;20056;-48
2022/05/17 06:24:12;;;;;;;10.23;5.45;;;;;;;19.95;55.49;94449.78;4906002;29;20044;-46
2022/05/17 06:26:39;;;;;;;11.57;5.40;;;;;;;19.62;56.18;94455.13;4915640;29;20052;-50
2022/05/17 06:29:06;;;;;;;10.02;5.85;;;;;;;20.42;54.30;94456.09;4915653;29;20048;-52
2022/05/17 06:31:33;;;;;;;10.63;5.82;;;;;;;20.47;54.38;94458.28;4914875;29;20047;-48
2022/05/17 06:34:00;;;;;;;11.13;5.47;;;;;;;21.05;52.62;94462.78;4910770;29;20057;-51
2022/05/17 06:36:26;;;;;;;10.27;5.40;;;;;;;21.39;52.16;94458.00;4906842;29;20429;-52
2022/05/17 06:39:13;;;;;;;9.80;5.20;;;;;;;20.91;52.67;94455.88;4896003;29;20490;-49
2022/05/17 06:41:40;;;;;;;10.43;5.20;;;;;;;21.72;51.01;94460.00;4896432;29;20048;-48
2022/05/17 06:44:07;;;;;;;11.40;5.70;;;;;;;22.59;49.66;94448.75;4896448;29;20041;-49
2022/05/17 06:46:33;;;;;;;8.33;4.83;;;;;;;25.18;44.49;94450.59;4895769;29;20044;-49
2022/05/17 06:49:00;;;;;;;11.23;5.05;;;;;;;23.94;45.88;94450.06;4910384;29;20119;-50
2022/05/17 06:51:27;;;;;;;10.65;4.60;;;;;;;23.26;47.15;94446.34;4895843;29;20395;-47
2022/05/17 06:53:54;;;;;;;8.50;4.75;;;;;;;23.21;46.34;94455.41;4896293;29;20036;-48
2022/05/17 06:56:21;;;;;;;7.38;4.65;;;;;;;24.78;43.90;94452.31;4895649;29;20052;-51
2022/05/17 06:58:48;;;;;;;6.27;4.40;;;;;;;25.30;42.68;94450.22;4910603;29;20050;-53
2022/05/17 07:01:14;;;;;;;7.28;4.30;;;;;;;27.15;38.54;94445.06;4895846;29;20066;-49
2022/05/17 07:03:42;;;;;;;9.35;4.70;;;;;;;26.94;39.45;94455.81;4896036;29;20049;-50
2022/05/17 07:06:10;;;;;;;8.68;4.53;;;;;;;27.54;37.78;94447.88;4894934;29;20515;-49
2022/05/17 07:08:36;;;;;;;7.38;4.45;;;;;;;27.24;37.46;94453.28;4895647;29;20044;-50
2022/05/17 07:13:49;;;;;;;8.90;4.30;;;;;;;28.43;35.91;94453.75;4894874;29;20102;-55
2022/05/17 07:16:16;;;;;;;6.22;4.25;;;;;;;28.31;36.09;94455.88;4909447;29;20430;-50
2022/05/17 07:18:42;;;;;;;9.07;4.30;;;;;;;28.56;35.31;94451.16;4895923;29;20055;-55
2022/05/17 07:21:12;;;;;;;6.90;4.07;;;;;;;28.74;34.86;94449.03;4895881;29;20045;-49
2022/05/17 07:23:40;;;;;;;7.83;4.13;;;;;;;30.16;33.19;94452.16;4892805;29;20810;-52
2022/05/17 07:26:08;;;;;;;7.70;4.00;;;;;;;30.10;32.56;94449.41;4914672;29;20067;-50
2022/05/17 07:28:40;;;;;;;6.38;3.50;;;;;;;29.87;32.93;94444.00;4913943;29;20052;-50
2022/05/17 07:31:07;;;;;;;6.60;4.00;;;;;;;28.87;34.10;94447.13;4914417;29;20044;-54
2022/05/17 07:33:35;;;;;;;6.70;3.80;;;;;;;29.99;32.48;94449.53;4914161;29;20055;-54
2022/05/17 07:36:03;;;;;;;7.50;3.83;;;;;;;31.18;29.36;94448.78;4914625;29;20036;-53
2022/05/17 07:38:30;;;;;;;5.78;3.60;;;;;;;30.72;30.29;94445.81;4913936;29;20056;-51
2022/05/17 07:40:57;;;;;;;7.07;3.70;;;;;;;31.40;29.10;94447.66;4911465;29;20433;-51
2022/05/17 07:43:24;;;;;;;5.63;3.38;;;;;;;31.23;29.22;94453.59;4920157;29;20044;-52
2022/05/17 07:45:51;;;;;;;6.93;3.72;;;;;;;32.70;26.79;94450.91;4895179;29;20053;-55
2022/05/17 07:48:22;;;;;;;7.30;3.33;;;;;;;30.93;28.86;94448.91;4894762;29;20528;-50
2022/05/17 07:50:50;;;;;;;6.03;3.70;;;;;;;29.36;31.14;94442.91;4909700;29;20064;-51
2022/05/17 07:53:19;;;;;;;6.90;3.83;;;;;;;28.89;31.83;94452.25;4894501;29;20091;-51
2022/05/17 07:55:47;;;;;;;5.45;3.72;;;;;;;32.25;27.98;94444.84;4895288;29;20047;-49
2022/05/17 07:58:14;;;;;;;5.95;3.60;;;;;;;30.66;29.04;94445.13;4894516;29;20040;-48
2022/05/17 08:00:42;;;;;;;5.03;3.47;;;;;;;29.20;31.68;94450.28;4895351;29;20067;-53
2022/05/17 08:03:12;;;;;;;5.97;3.60;;;;;;;27.11;34.66;94445.31;4895370;29;20375;-50
2022/05/17 08:05:39;;;;;;;5.47;4.00;;;;;;;24.96;38.88;94451.97;4894223;29;20659;-53
2022/05/17 08:08:06;;;;;;;6.10;3.70;;;;;;;27.44;33.82;94449.41;4895435;29;20071;-50
2022/05/17 08:10:32;;;;;;;5.63;3.60;;;;;;;30.14;30.07;94444.22;4895049;29;20091;-53
2022/05/17 08:12:59;;;;;;;5.37;3.87;;;;;;;27.73;33.04;94441.69;4895326;29;20093;-50
2022/05/17 08:15:28;;;;;;;6.28;3.60;;;;;;;28.13;32.83;94440.31;4894323;29;20051;-48
2022/05/17 08:18:01;;;;;;;6.78;3.80;;;;;;;26.81;34.90;94442.97;4894895;29;20446;-50
2022/05/17 08:20:29;;;;;;;7.63;3.90;;;;;;;24.51;38.81;94441.09;4894409;29;20123;-51
2022/05/17 08:22:56;;;;;;;5.00;3.75;;;;;;;26.83;35.06;94448.13;4895022;29;20494;-48
2022/05/17 08:28:09;;;;;;;6.25;3.60;;;;;;;30.32;29.71;94441.97;4898875;29;20401;-49
2022/05/17 08:30:37;;;;;;;8.30;4.00;;;;;;;29.32;31.05;94439.63;4898251;29;20057;-48
2022/05/17 08:33:16;;;;;;;9.02;3.40;;;;;;;29.84;30.01;94442.25;4898822;29;20517;-51
2022/05/17 08:35:58;;;;;;;6.53;3.20;;;;;;;31.80;26.60;94437.16;4897789;29;20633;-52
2022/05/17 08:38:31;;;;;;;4.90;3.20;;;;;;;32.99;25.38;94438.38;4898413;29;20071;-54
2022/05/17 08:41:13;;;;;;;5.00;3.20;;;;;;;30.60;28.43;94442.38;4900235;29;20055;-49
2022/05/17 08:43:49;;;;;;;3.97;3.00;;;;;;;31.88;26.89;94442.97;4908866;29;20044;-51
2022/05/17 08:46:26;;;;;;;6.03;3.10;;;;;;;31.11;26.67;94441.69;4898240;29;20115;-52
2022/05/17 08:49:02;;;;;;;4.53;3.00;;;;;;;30.57;27.07;94439.88;4898552;29;20060;-53
2022/05/17 08:51:39;;;;;;;5.63;3.27;;;;;;;30.31;27.02;94434.78;4898155;29;20072;-51
2022/05/17 08:54:10;;;;;;;5.18;2.70;;;;;;;32.25;25.05;94432.72;4898556;29;20402;-51
2022/05/17 08:56:43;;;;;;;6.28;2.83;;;;;;;30.05;26.17;94439.69;4898044;29;20041;-55
2022/05/17 08:59:15;;;;;;;4.70;2.63;;;;;;;33.82;22.79;94427.59;4912788;29;20053;-52
2022/05/17 09:02:07;;;;;;;4.82;2.42;;;;;;;31.74;24.03;94428.00;4897169;29;20051;-53
2022/05/17 09:05:02;;;;;;;5.30;2.93;;;;;;;33.94;21.87;94430.91;4897759;29;20048;-55
2022/05/17 09:07:40;;;;;;;7.00;2.60;;;;;;;32.78;23.34;94432.66;4912244;29;20417;-53
2022/05/17 09:10:12;;;;;;;5.25;2.50;;;;;;;35.88;20.90;94425.28;4898277;29;20439;-55
2022/05/17 09:12:45;;;;;;;5.80;2.88;;;;;;;28.03;29.67;94433.41;4897112;29;21655;-52
2022/05/17 09:15:16;;;;;;;5.68;2.80;;;;;;;31.73;24.75;94428.53;4912377;29;20036;-53
2022/05/17 09:17:44;;;;;;;5.60;2.83;;;;;;;30.70;26.87;94431.41;4897192;29;20276;-51
2022/05/17 09:20:18;;;;;;;6.28;2.80;;;;;;;31.28;25.69;94430.06;4897755;29;20071;-52
2022/05/17 09:22:44;;;;;;;4.70;2.60;;;;;;;32.68;24.03;94425.91;4897120;29;20273;-52
2022/05/17 09:25:16;;;;;;;5.00;2.40;;;;;;;35.89;20.48;94433.28;4915303;29;20036;-52
2022/05/17 09:27:48;;;;;;;3.85;2.47;;;;;;;37.35;18.18;94424.25;4915592;29;22565;-53
2022/05/17 09:30:21;;;;;;;3.83;2.30;;;;;;;31.85;23.13;94429.84;4916161;29;20401;-51
2022/05/17 09:32:58;;;;;;;5.03;2.60;;;;;;;30.74;25.78;94420.53;4916684;29;20036;-53
2022/05/17 09:35:25;;;;;;;5.03;2.40;;;;;;;34.01;22.04;94419.56;4914686;29;20067;-54
2022/05/17 09:37:56;;;;;;;5.82;2.80;;;;;;;27.10;30.30;94419.19;4916503;29;20040;-52
2022/05/17 09:40:30;;;;;;;5.90;3.10;;;;;;;27.19;30.53;94412.53;4915722;29;20543;-51
2022/05/17 09:42:57;;;;;;;4.83;2.93;;;;;;;27.83;29.71;94411.91;4916208;29;20048;-52
2022/05/17 09:45:39;;;;;;;6.47;2.45;;;;;;;30.53;26.29;94413.91;4915623;29;20126;-52
2022/05/17 09:48:09;;;;;;;5.53;2.88;;;;;;;28.82;28.14;94416.09;4916141;29;20047;-50
2022/05/17 09:53:47;;;;;;;3.85;2.60;;;;;;;27.48;30.48;94414.03;4915871;29;20047;-52
2022/05/17 09:56:16;;;;;;;4.93;2.77;;;;;;;28.29;29.60;94411.25;4929942;29;20048;-50
2022/05/17 09:58:45;;;;;;;7.25;2.97;;;;;;;27.66;29.72;94407.09;4916343;29;20043;-52
2022/05/17 10:01:19;;;;;;;4.75;2.63;;;;;;;27.75;29.40;94414.50;4914598;29;20532;-52
2022/05/17 10:04:04;;;;;;;4.45;2.90;;;;;;;28.37;29.31;94411.47;4916161;29;20050;-48
2022/05/17 10:06:46;;;;;;;6.05;2.85;;;;;;;30.10;26.96;94404.13;4915574;29;20048;-51
2022/05/17 10:09:30;;;;;;;5.17;2.70;;;;;;;29.81;26.32;94406.50;4915366;29;20171;-53
2022/05/17 10:12:09;;;;;;;5.10;2.42;;;;;;;32.22;24.37;94396.91;4915763;29;20042;-52
2022/05/17 10:14:50;;;;;;;4.65;2.40;;;;;;;28.38;28.40;94409.41;4915261;29;20050;-54
2022/05/17 10:17:51;;;;;;;4.72;2.33;;;;;;;28.63;27.26;94399.00;4915193;29;20048;-50
2022/05/17 10:20:27;;;;;;;6.43;2.58;;;;;;;26.27;31.28;94401.66;4915209;29;20056;-52
2022/05/17 10:23:03;;;;;;;4.90;2.50;;;;;;;27.61;29.20;94395.84;4915752;29;20044;-51
2022/05/17 10:25:44;;;;;;;4.90;2.30;;;;;;;28.27;28.21;94396.09;4877716;29;20487;-52
2022/05/17 10:28:29;;;;;;;3.80;2.20;;;;;;;28.40;27.75;94395.53;4878183;29;20051;-52
2022/05/17 10:31:26;;;;;;;4.18;2.10;;;;;;;26.82;28.94;94393.84;4876751;29;20421;-50
2022/05/17 10:34:36;;;;;;;4.45;2.15;;;;;;;27.02;28.30;94387.16;4876953;29;20072;-52
2022/05/17 10:37:14;;;;;;;4.80;2.03;;;;;;;27.65;27.17;94385.06;4876959;29;20048;-51
2022/05/17 10:39:53;;;;;;;5.95;2.33;;;;;;;26.61;29.78;94387.69;4877103;29;20150;-54
2022/05/17 10:42:21;;;;;;;5.53;2.30;;;;;;;30.16;25.33;94382.16;4877017;29;20049;-54
2022/05/17 10:44:51;;;;;;;5.03;2.50;;;;;;;28.73;26.61;94376.88;4877772;29;20052;-51
2022/05/17 10:47:33;;;;;;;4.97;2.25;;;;;;;29.33;26.31;94376.91;4876714;29;20048;-51
2022/05/17 10:50:28;;;;;;;4.03;2.20;;;;;;;29.71;25.48;94374.22;4877515;29;20064;-51
2022/05/17 10:53:35;;;;;;;4.47;2.10;;;;;;;29.52;25.63;94364.88;4876795;29;20619;-49
2022/05/17 10:56:17;;;;;;;5.60;2.28;;;;;;;27.78;27.98;94368.34;4876791;29;20769;-51
2022/05/17 10:58:50;;;;;;;4.82;2.60;;;;;;;27.24;29.49;94365.91;4876596;29;20750;-51
2022/05/17 11:01:26;;;;;;;4.55;2.33;;;;;;;25.79;30.98;94371.53;4877172;29;20457;-49
2022/05/17 11:03:55;;;;;;;8.20;2.60;;;;;;;26.61;31.00;94365.16;4877346;29;20293;-47
2022/05/17 11:06:29;;;;;;;4.45;2.40;;;;;;;27.12;29.38;94353.09;4876920;29;20052;-50
2022/05/17 11:09:26;;;;;;;4.93;2.20;;;;;;;26.51;30.68;94358.22;4877047;29;20074;-48
2022/05/17 11:12:09;;;;;;;5.07;2.45;;;;;;;26.59;30.09;94352.88;4876416;29;20746;-51
2022/05/17 11:14:40;;;;;;;5.72;2.60;;;;;;;25.97;31.57;94358.34;4876657;29;20049;-51
2022/05/17 11:17:10;;;;;;;5.50;2.47;;;;;;;26.23;31.57;94353.28;4890526;29;20061;-53
2022/05/17 11:19:46;;;;;;;4.85;2.30;;;;;;;27.02;30.85;94346.97;4893802;29;20056;-49
2022/05/17 11:22:27;;;;;;;5.43;2.25;;;;;;;27.73;31.11;94335.31;4895386;29;20049;-53
2022/05/17 11:25:21;;;;;;;6.40;2.60;;;;;;;27.33;31.43;94340.28;4910855;29;20074;-51
2022/05/17 11:27:48;;;;;;;5.28;2.45;;;;;;;25.97;32.72;94347.84;4913669;29;20044;-51
2022/05/17 11:30:27;;;;;;;4.03;2.60;;;;;;;26.82;32.24;94328.28;4913936;29;20044;-50
2022/05/17 11:33:06;;;;;;;5.10;2.70;;;;;;;27.30;30.19;94332.88;4914304;29;20071;-51
2022/05/17 11:35:32;;;;;;;4.63;2.80;;;;;;;26.32;32.31;94332.63;4914150;29;20052;-51
2022/05/17 11:37:59;;;;;;;6.18;2.70;;;;;;;26.04;33.22;94333.31;4914512;29;20044;-53
2022/05/17 11:40:47;;;;;;;6.18;2.80;;;;;;;26.89;31.39;94324.97;4928394;29;20115;-50
2022/05/17 11:43:42;;;;;;;4.53;2.50;;;;;;;26.14;31.54;94325.41;4913981;29;20066;-52
2022/05/17 11:46:24;;;;;;;4.45;2.45;;;;;;;25.23;32.85;94318.66;4914340;29;20040;-50
2022/05/17 11:48:57;;;;;;;5.25;2.33;;;;;;;24.99;32.69;94319.00;4913458;29;20911;-49
2022/05/17 11:51:33;;;;;;;5.03;2.20;;;;;;;26.42;30.42;94314.19;4913912;29;20053;-50
2022/05/17 11:54:03;;;;;;;9.15;2.60;;;;;;;25.80;31.48;94311.25;4914398;29;20071;-51
2022/05/17 11:56:33;;;;;;;4.50;2.40;;;;;;;27.16;29.42;94306.47;4913763;29;20044;-48